Time;durP1;ratioP1;P1;durP2;ratioP2;P2;SDS_P1;SDS_P2;PMS_P1;PMS_P2;Temp;Humidity;BMP_temperature;BMP_pressure;BME280_temperature;BME280_humidity;BME280_pressure;Samples;Min_cycle;Max_cycle;Signal;HPM_P1;HPM_P2
2023/02/20 00:00:31;;;;;;;9.10;2.95;;;;;;;;;;5029602;28;20076;-79
2023/02/20 00:02:58;;;;;;;4.93;2.50;;;;;;;;;;5030426;28;20049;-80
2023/02/20 00:05:25;;;;;;;4.65;2.45;;;;;;;;;;5031384;28;20092;-80
2023/02/20 00:07:51;;;;;;;4.90;2.83;;;;;;;;;;5032219;28;20063;-81
2023/02/20 00:10:18;;;;;;;6.55;2.85;;;;;;;;;;5016507;28;20520;-81
2023/02/20 00:12:45;;;;;;;5.00;2.42;;;;;;;;;;5032717;28;20042;-80
2023/02/20 00:15:18;;;;;;;7.43;2.60;;;;;;;;;;5000138;28;20053;-80
2023/02/20 00:17:48;;;;;;;9.77;3.83;;;;;;;;;;5017567;28;20073;-80
2023/02/20 00:20:23;;;;;;;4.30;2.90;;;;;;;;;;5013851;28;20045;-77
2023/02/20 00:22:51;;;;;;;7.68;2.90;;;;;;;;;;5014862;28;20042;-79
2023/02/20 00:25:19;;;;;;;8.88;3.00;;;;;;;;;;5033042;28;20424;-79
2023/02/20 00:27:46;;;;;;;8.90;4.43;;;;;;;;;;5013936;28;20093;-78
2023/02/20 00:30:23;;;;;;;6.25;2.67;;;;;;;;;;5014088;28;20053;-78
2023/02/20 00:32:51;;;;;;;3.55;2.45;;;;;;;;;;5030158;28;20059;-77
2023/02/20 00:35:18;;;;;;;6.47;2.70;;;;;;;;;;5028927;28;20076;-77
2023/02/20 00:37:46;;;;;;;7.90;2.72;;;;;;;;;;5028823;28;20088;-77
2023/02/20 00:40:14;;;;;;;6.18;3.10;;;;;;;;;;4996237;28;20513;-77
2023/02/20 00:42:41;;;;;;;9.50;3.35;;;;;;;;;;5028773;28;20050;-80
2023/02/20 00:45:08;;;;;;;5.82;3.05;;;;;;;;;;5029160;28;20563;-79
2023/02/20 00:47:35;;;;;;;7.72;2.72;;;;;;;;;;4995965;28;20064;-79
2023/02/20 00:50:02;;;;;;;9.98;3.40;;;;;;;;;;5029060;28;20394;-79
2023/02/20 00:52:28;;;;;;;6.13;2.60;;;;;;;;;;5028966;28;20405;-79
2023/02/20 00:54:55;;;;;;;6.90;2.95;;;;;;;;;;5028746;28;20053;-80
2023/02/20 00:57:22;;;;;;;6.85;2.58;;;;;;;;;;5029171;28;20068;-79
2023/02/20 00:59:49;;;;;;;6.65;2.78;;;;;;;;;;5029208;28;20456;-79
2023/02/20 01:02:16;;;;;;;6.18;2.63;;;;;;;;;;5012460;28;20053;-79
2023/02/20 01:04:43;;;;;;;8.73;3.03;;;;;;;;;;5035499;28;20050;-83
2023/02/20 01:07:10;;;;;;;9.45;3.88;;;;;;;;;;5015400;28;20510;-78
2023/02/20 01:09:37;;;;;;;4.88;2.75;;;;;;;;;;5028476;28;20061;-78
2023/02/20 01:12:03;;;;;;;8.20;2.72;;;;;;;;;;5011883;28;20055;-80
2023/02/20 01:14:30;;;;;;;7.63;2.92;;;;;;;;;;5008845;28;20144;-79
2023/02/20 01:16:57;;;;;;;8.25;2.90;;;;;;;;;;4994777;28;20058;-80
2023/02/20 01:19:24;;;;;;;8.00;3.05;;;;;;;;;;5012401;28;20060;-80
2023/02/20 01:21:51;;;;;;;7.80;3.13;;;;;;;;;;5008776;28;20050;-78
2023/02/20 01:24:18;;;;;;;5.93;2.70;;;;;;;;;;4996759;28;20050;-81
2023/02/20 01:26:46;;;;;;;7.35;3.20;;;;;;;;;;5012275;28;20050;-78
2023/02/20 01:29:13;;;;;;;3.08;2.50;;;;;;;;;;5029880;28;20057;-79
2023/02/20 01:31:39;;;;;;;6.03;3.40;;;;;;;;;;4995657;28;20060;-79
2023/02/20 01:34:06;;;;;;;7.65;2.67;;;;;;;;;;5012004;28;20061;-80
2023/02/20 01:36:33;;;;;;;4.75;2.53;;;;;;;;;;5029737;28;20064;-79
2023/02/20 01:39:00;;;;;;;3.78;2.40;;;;;;;;;;5028066;28;20162;-81
2023/02/20 01:41:27;;;;;;;6.05;2.50;;;;;;;;;;5028313;28;20061;-78
2023/02/20 01:43:53;;;;;;;6.68;3.53;;;;;;;;;;5011733;28;20054;-77
2023/02/20 01:46:46;;;;;;;7.82;2.75;;;;;;;;;;5029584;28;20528;-80
2023/02/20 01:49:16;;;;;;;6.18;2.78;;;;;;;;;;5028481;28;20057;-77
2023/02/20 01:51:52;;;;;;;6.57;2.60;;;;;;;;;;5011911;28;20060;-78
2023/02/20 01:54:20;;;;;;;5.47;2.67;;;;;;;;;;5012447;28;20060;-78
2023/02/20 01:56:47;;;;;;;5.15;2.63;;;;;;;;;;5012416;28;20424;-78
2023/02/20 01:59:14;;;;;;;6.10;2.45;;;;;;;;;;5012158;28;20144;-78
2023/02/20 02:01:40;;;;;;;6.35;2.30;;;;;;;;;;4995933;28;20058;-80
2023/02/20 02:04:08;;;;;;;7.30;3.05;;;;;;;;;;5011833;28;20049;-80
2023/02/20 02:06:37;;;;;;;7.25;2.80;;;;;;;;;;5029676;28;20057;-81
2023/02/20 02:09:08;;;;;;;12.45;2.90;;;;;;;;;;5016413;28;20111;-80
2023/02/20 02:11:36;;;;;;;6.47;2.90;;;;;;;;;;5017880;28;20045;-80
2023/02/20 02:14:02;;;;;;;5.53;2.58;;;;;;;;;;5017601;28;20049;-80
2023/02/20 02:16:57;;;;;;;4.90;2.70;;;;;;;;;;5017187;28;20053;-81
2023/02/20 02:20:03;;;;;;;5.97;2.60;;;;;;;;;;5017809;28;20060;-80
2023/02/20 02:22:57;;;;;;;4.32;2.72;;;;;;;;;;5017487;28;20129;-80
2023/02/20 02:25:47;;;;;;;9.23;3.22;;;;;;;;;;5033612;28;20140;-81
2023/02/20 02:28:40;;;;;;;7.95;3.55;;;;;;;;;;5017805;28;20050;-79
2023/02/20 02:31:45;;;;;;;5.88;2.30;;;;;;;;;;5029621;28;20166;-78
2023/02/20 02:34:50;;;;;;;10.45;3.03;;;;;;;;;;5032202;28;20528;-81
2023/02/20 02:37:20;;;;;;;11.25;3.10;;;;;;;;;;4973238;28;20146;-80
2023/02/20 02:39:50;;;;;;;7.45;3.20;;;;;;;;;;5020301;28;20063;-80
2023/02/20 02:42:46;;;;;;;8.00;3.33;;;;;;;;;;5033353;28;20136;-80
2023/02/20 02:45:32;;;;;;;8.32;4.07;;;;;;;;;;5033583;28;20136;-80
2023/02/20 02:48:10;;;;;;;7.55;3.05;;;;;;;;;;5033960;28;20049;-79
2023/02/20 02:50:38;;;;;;;5.10;2.97;;;;;;;;;;5036411;28;20204;-80
2023/02/20 02:53:06;;;;;;;7.45;3.33;;;;;;;;;;5017371;28;20137;-80
2023/02/20 02:55:33;;;;;;;5.30;2.60;;;;;;;;;;5033725;28;20152;-79
2023/02/20 02:58:01;;;;;;;5.70;2.60;;;;;;;;;;4999831;28;20505;-79
2023/02/20 03:00:40;;;;;;;6.55;2.60;;;;;;;;;;5031848;28;20041;-80
2023/02/20 03:03:10;;;;;;;5.45;2.58;;;;;;;;;;5032083;28;20450;-79
2023/02/20 03:05:47;;;;;;;8.43;3.30;;;;;;;;;;5031693;28;20053;-79
2023/02/20 03:08:30;;;;;;;6.57;2.60;;;;;;;;;;5031693;28;20049;-79
2023/02/20 03:11:03;;;;;;;6.43;2.80;;;;;;;;;;5031535;28;20100;-80
2023/02/20 03:16:31;;;;;;;5.90;2.90;;;;;;;;;;4999429;28;20064;-79
2023/02/20 03:19:00;;;;;;;5.85;2.85;;;;;;;;;;4995167;28;20057;-80
2023/02/20 03:21:27;;;;;;;8.65;2.92;;;;;;;;;;5011244;28;20136;-78
2023/02/20 03:23:56;;;;;;;7.50;3.85;;;;;;;;;;4995275;28;20050;-78
2023/02/20 03:26:27;;;;;;;8.38;3.28;;;;;;;;;;5011618;28;20054;-80
2023/02/20 03:28:58;;;;;;;6.30;2.58;;;;;;;;;;5006650;28;20061;-80
2023/02/20 03:31:28;;;;;;;6.20;3.42;;;;;;;;;;5033435;28;20060;-80
2023/02/20 03:45:09;;;;;;;7.53;2.50;;;;;;;;;;5033467;28;20116;-79
2023/02/20 03:47:38;;;;;;;10.32;2.95;;;;;;;;;;5032628;28;20053;-80
2023/02/20 03:50:05;;;;;;;5.22;3.55;;;;;;;;;;5016581;28;20053;-80
2023/02/20 03:52:32;;;;;;;4.95;2.35;;;;;;;;;;5016776;28;20089;-80
2023/02/20 03:54:58;;;;;;;6.55;2.53;;;;;;;;;;5032104;28;20412;-79
2023/02/20 03:57:38;;;;;;;9.23;3.15;;;;;;;;;;5035160;28;20472;-80
2023/02/20 04:00:09;;;;;;;4.15;2.60;;;;;;;;;;5042837;28;20347;-78
2023/02/20 04:02:38;;;;;;;5.72;2.67;;;;;;;;;;5030902;28;20056;-77
2023/02/20 04:05:09;;;;;;;3.60;2.03;;;;;;;;;;5014654;28;20516;-78
2023/02/20 04:07:41;;;;;;;3.40;1.98;;;;;;;;;;5013284;28;20171;-78
2023/02/20 04:10:10;;;;;;;6.55;2.50;;;;;;;;;;5029965;28;20516;-77
2023/02/20 04:12:39;;;;;;;8.05;2.35;;;;;;;;;;5013113;28;20478;-78
2023/02/20 04:15:07;;;;;;;8.65;2.65;;;;;;;;;;5013324;28;20092;-78
2023/02/20 04:17:38;;;;;;;4.93;2.53;;;;;;;;;;5028968;28;20140;-78
2023/02/20 04:20:05;;;;;;;6.13;2.65;;;;;;;;;;5028947;28;20136;-76
2023/02/20 04:22:35;;;;;;;5.13;2.45;;;;;;;;;;5012810;28;20641;-78
2023/02/20 04:25:12;;;;;;;8.15;2.80;;;;;;;;;;5028892;28;20073;-78
2023/02/20 04:27:42;;;;;;;6.47;3.13;;;;;;;;;;5015206;28;20056;-76
2023/02/20 04:30:10;;;;;;;5.90;3.17;;;;;;;;;;5011011;28;20046;-78
2023/02/20 04:32:37;;;;;;;7.07;3.30;;;;;;;;;;5013119;28;20096;-77
2023/02/20 04:35:04;;;;;;;6.20;2.60;;;;;;;;;;5010681;28;20045;-79
2023/02/20 04:37:31;;;;;;;6.18;2.80;;;;;;;;;;4993479;28;20088;-79
2023/02/20 04:39:58;;;;;;;11.75;2.72;;;;;;;;;;5010460;28;20107;-79
2023/02/20 04:42:25;;;;;;;8.15;2.95;;;;;;;;;;5019713;28;20121;-78
2023/02/20 04:44:51;;;;;;;8.15;2.75;;;;;;;;;;5030604;28;20057;-79
2023/02/20 04:47:18;;;;;;;4.57;2.80;;;;;;;;;;5029251;28;20055;-80
2023/02/20 04:49:45;;;;;;;6.25;3.28;;;;;;;;;;5030180;28;20057;-78
2023/02/20 04:52:12;;;;;;;7.93;2.90;;;;;;;;;;5010417;28;20089;-85
2023/02/20 04:54:39;;;;;;;5.70;2.80;;;;;;;;;;5014660;28;20117;-84
2023/02/20 04:57:06;;;;;;;8.80;3.22;;;;;;;;;;5014400;28;20140;-82
2023/02/20 04:59:33;;;;;;;7.18;2.72;;;;;;;;;;5012428;28;20081;-79
2023/02/20 05:02:00;;;;;;;8.40;3.33;;;;;;;;;;5015235;28;20128;-79
2023/02/20 05:04:27;;;;;;;7.47;4.88;;;;;;;;;;5030699;28;20505;-79
2023/02/20 05:06:55;;;;;;;5.82;4.10;;;;;;;;;;5033087;28;20072;-80
2023/02/20 05:09:22;;;;;;;5.95;3.30;;;;;;;;;;5034784;28;20081;-79
2023/02/20 05:11:49;;;;;;;6.50;3.42;;;;;;;;;;5033016;28;20068;-81
2023/02/20 05:14:16;;;;;;;8.23;3.55;;;;;;;;;;5001164;28;20059;-79
2023/02/20 05:16:45;;;;;;;8.27;3.55;;;;;;;;;;5015993;28;20141;-80
2023/02/20 05:19:13;;;;;;;6.68;3.60;;;;;;;;;;4985431;28;20050;-80
2023/02/20 05:24:30;;;;;;;7.82;5.32;;;;;;;;;;5008666;28;20049;-77
2023/02/20 05:26:58;;;;;;;16.27;12.80;;;;;;;;;;5017628;28;20073;-77
2023/02/20 05:29:24;;;;;;;9.65;8.40;;;;;;;;;;5030203;28;20056;-78
2023/02/20 05:31:51;;;;;;;7.50;4.82;;;;;;;;;;5015387;28;20064;-78
2023/02/20 05:34:21;;;;;;;9.55;3.08;;;;;;;;;;5031452;28;20199;-77
2023/02/20 05:36:48;;;;;;;9.52;3.55;;;;;;;;;;5015763;28;20053;-77
2023/02/20 05:39:15;;;;;;;6.65;3.33;;;;;;;;;;5004566;28;20058;-78
2023/02/20 05:41:42;;;;;;;8.82;3.50;;;;;;;;;;4995730;28;20421;-79
2023/02/20 05:44:09;;;;;;;11.48;3.55;;;;;;;;;;5013478;28;20476;-78
2023/02/20 05:46:40;;;;;;;7.97;3.47;;;;;;;;;;5021111;28;20050;-77
2023/02/20 05:49:08;;;;;;;5.75;3.42;;;;;;;;;;5017137;28;20061;-78
2023/02/20 05:51:35;;;;;;;9.07;3.95;;;;;;;;;;5019974;28;20050;-79
2023/02/20 05:54:02;;;;;;;7.30;3.97;;;;;;;;;;5025152;28;20113;-82
2023/02/20 05:56:31;;;;;;;13.32;4.00;;;;;;;;;;5000753;28;20105;-78
2023/02/20 05:58:59;;;;;;;7.03;4.10;;;;;;;;;;5020172;28;20118;-80
2023/02/20 06:01:28;;;;;;;8.52;3.65;;;;;;;;;;5024493;28;20053;-79
2023/02/20 06:03:55;;;;;;;5.93;3.63;;;;;;;;;;5035007;28;20380;-78
2023/02/20 06:06:22;;;;;;;7.93;4.30;;;;;;;;;;5035306;28;20113;-79
2023/02/20 06:08:49;;;;;;;9.45;3.78;;;;;;;;;;5034342;28;20148;-79
2023/02/20 06:11:16;;;;;;;7.45;3.95;;;;;;;;;;5034190;28;20296;-80
2023/02/20 06:13:44;;;;;;;5.32;3.40;;;;;;;;;;5003524;28;20113;-80
2023/02/20 06:16:11;;;;;;;8.52;4.22;;;;;;;;;;5019586;28;20057;-79
2023/02/20 06:18:40;;;;;;;9.80;3.70;;;;;;;;;;5018421;28;20094;-77
2023/02/20 06:21:08;;;;;;;9.38;4.47;;;;;;;;;;5032203;28;20401;-78
2023/02/20 06:23:38;;;;;;;8.60;3.95;;;;;;;;;;5032205;28;20077;-78
2023/02/20 06:26:06;;;;;;;7.95;4.38;;;;;;;;;;5032814;28;20421;-78
2023/02/20 06:28:33;;;;;;;8.85;4.00;;;;;;;;;;5016820;28;20057;-78
2023/02/20 06:31:00;;;;;;;9.23;4.18;;;;;;;;;;5032241;28;20107;-80
2023/02/20 06:33:28;;;;;;;8.00;4.10;;;;;;;;;;5015966;28;20473;-75
2023/02/20 06:35:55;;;;;;;13.18;4.55;;;;;;;;;;5014224;28;20353;-77
2023/02/20 06:38:22;;;;;;;7.47;4.22;;;;;;;;;;5030898;28;20057;-77
2023/02/20 06:40:49;;;;;;;7.28;3.88;;;;;;;;;;4999237;28;20472;-77
2023/02/20 06:43:16;;;;;;;7.75;4.43;;;;;;;;;;5015135;28;20049;-76
2023/02/20 06:45:43;;;;;;;10.35;3.95;;;;;;;;;;5013825;28;20128;-79
2023/02/20 06:48:10;;;;;;;8.68;4.38;;;;;;;;;;5030792;28;20669;-77
2023/02/20 06:50:37;;;;;;;9.98;4.93;;;;;;;;;;5030185;28;20152;-77
2023/02/20 06:53:04;;;;;;;8.20;4.30;;;;;;;;;;5030084;28;20449;-77
2023/02/20 06:55:31;;;;;;;8.02;4.10;;;;;;;;;;5012628;28;20057;-76
2023/02/20 06:57:58;;;;;;;7.30;4.03;;;;;;;;;;5017028;28;20053;-76
2023/02/20 07:00:25;;;;;;;7.75;4.47;;;;;;;;;;5031585;28;20076;-76
2023/02/20 07:02:52;;;;;;;7.95;3.83;;;;;;;;;;4998264;28;20488;-76
2023/02/20 07:05:19;;;;;;;5.68;4.28;;;;;;;;;;5031000;28;20053;-76
2023/02/20 07:07:46;;;;;;;9.68;4.70;;;;;;;;;;5013395;28;20085;-76
2023/02/20 07:10:12;;;;;;;11.52;4.78;;;;;;;;;;5013025;28;20140;-76
2023/02/20 07:12:39;;;;;;;13.18;5.00;;;;;;;;;;5030600;28;20057;-76
2023/02/20 07:15:07;;;;;;;10.68;5.03;;;;;;;;;;5029109;28;20085;-75
2023/02/20 07:17:34;;;;;;;12.25;3.70;;;;;;;;;;5013279;28;20195;-77
2023/02/20 07:20:01;;;;;;;7.15;3.80;;;;;;;;;;5012984;28;20118;-76
2023/02/20 07:22:27;;;;;;;12.38;4.00;;;;;;;;;;5012663;28;20045;-75
2023/02/20 07:24:54;;;;;;;7.63;4.40;;;;;;;;;;5029277;28;20051;-75
2023/02/20 07:27:21;;;;;;;5.63;3.40;;;;;;;;;;5029725;28;20055;-75
2023/02/20 07:29:49;;;;;;;10.57;4.18;;;;;;;;;;4995843;28;20092;-75
2023/02/20 07:32:19;;;;;;;10.65;4.03;;;;;;;;;;5021242;28;20089;-75
2023/02/20 07:34:46;;;;;;;8.65;4.38;;;;;;;;;;5005354;28;20053;-74
2023/02/20 07:37:28;;;;;;;8.67;3.73;;;;;;;;;;4989154;28;20132;-72
2023/02/20 07:39:55;;;;;;;15.27;5.18;;;;;;;;;;5015474;28;20136;-77
2023/02/20 07:42:22;;;;;;;15.95;5.65;;;;;;;;;;4998163;28;20072;-77
2023/02/20 07:44:49;;;;;;;18.58;6.00;;;;;;;;;;5003533;28;20045;-77
2023/02/20 07:47:16;;;;;;;12.68;5.68;;;;;;;;;;5014383;28;20140;-75
2023/02/20 07:49:43;;;;;;;7.38;4.70;;;;;;;;;;5018034;28;20137;-73
2023/02/20 07:52:09;;;;;;;12.23;4.07;;;;;;;;;;5014399;28;20136;-74
2023/02/20 07:54:36;;;;;;;7.43;4.07;;;;;;;;;;5016699;28;20042;-73
2023/02/20 07:57:03;;;;;;;10.80;4.03;;;;;;;;;;5015545;28;20149;-75
2023/02/20 07:59:30;;;;;;;10.00;3.65;;;;;;;;;;5016603;28;20084;-73
2023/02/20 08:01:57;;;;;;;8.90;4.55;;;;;;;;;;5007660;28;20063;-74
2023/02/20 08:04:24;;;;;;;8.85;3.47;;;;;;;;;;5016581;28;20056;-74
2023/02/20 08:06:50;;;;;;;7.13;3.78;;;;;;;;;;5014967;28;20075;-72
2023/02/20 08:09:17;;;;;;;7.10;3.78;;;;;;;;;;5018153;28;20084;-70
2023/02/20 08:11:44;;;;;;;11.02;4.20;;;;;;;;;;5014037;28;20108;-71
2023/02/20 08:14:12;;;;;;;9.05;3.33;;;;;;;;;;5013465;28;20041;-70
2023/02/20 08:16:39;;;;;;;9.13;3.72;;;;;;;;;;5000798;28;20053;-70
2023/02/20 08:19:06;;;;;;;9.68;3.35;;;;;;;;;;5019363;28;20056;-71
2023/02/20 08:21:32;;;;;;;8.10;3.22;;;;;;;;;;5016108;28;20049;-70
2023/02/20 08:24:00;;;;;;;8.57;3.28;;;;;;;;;;5007913;28;20033;-71
2023/02/20 08:26:27;;;;;;;9.32;3.05;;;;;;;;;;5017857;28;20053;-70
2023/02/20 08:28:54;;;;;;;7.30;3.05;;;;;;;;;;5014073;28;20053;-70
2023/02/20 08:31:21;;;;;;;5.10;2.05;;;;;;;;;;5002449;28;20092;-70
2023/02/20 08:33:58;;;;;;;7.90;2.60;;;;;;;;;;4999968;28;20426;-69
2023/02/20 08:36:25;;;;;;;7.22;2.72;;;;;;;;;;5010678;28;20108;-74
2023/02/20 08:38:53;;;;;;;10.25;3.13;;;;;;;;;;5019922;28;20064;-72
2023/02/20 08:41:20;;;;;;;8.15;2.60;;;;;;;;;;5020286;28;20124;-74
2023/02/20 08:43:48;;;;;;;9.43;2.50;;;;;;;;;;5010622;28;20045;-73
2023/02/20 08:46:15;;;;;;;5.35;2.38;;;;;;;;;;5015365;28;20084;-73
2023/02/20 08:48:43;;;;;;;11.07;3.10;;;;;;;;;;5018273;28;20089;-73
2023/02/20 08:51:11;;;;;;;5.70;2.35;;;;;;;;;;5000534;28;20081;-72
2023/02/20 08:53:38;;;;;;;7.75;2.42;;;;;;;;;;5021336;28;20547;-74
2023/02/20 08:56:06;;;;;;;3.40;2.58;;;;;;;;;;4998455;28;20559;-74
2023/02/20 08:58:33;;;;;;;4.85;2.28;;;;;;;;;;4975516;28;20107;-73
2023/02/20 09:01:00;;;;;;;9.95;2.97;;;;;;;;;;5010707;28;20577;-74
2023/02/20 09:03:28;;;;;;;6.80;2.10;;;;;;;;;;4994280;28;20133;-73
2023/02/20 09:05:55;;;;;;;3.92;2.25;;;;;;;;;;4996980;28;20054;-74
2023/02/20 09:08:21;;;;;;;5.88;2.53;;;;;;;;;;5031666;28;20053;-74
2023/02/20 09:10:48;;;;;;;6.40;2.83;;;;;;;;;;5014105;28;20049;-74
2023/02/20 09:13:15;;;;;;;5.90;2.17;;;;;;;;;;5014520;28;20107;-74
2023/02/20 09:15:42;;;;;;;4.10;2.45;;;;;;;;;;5031748;28;20084;-74
2023/02/20 09:18:11;;;;;;;5.28;1.92;;;;;;;;;;5016225;28;20128;-74
2023/02/20 09:20:38;;;;;;;5.30;2.03;;;;;;;;;;5019169;28;20053;-74
2023/02/20 09:23:05;;;;;;;5.43;2.47;;;;;;;;;;5018371;28;20132;-72
2023/02/20 09:25:32;;;;;;;3.10;1.73;;;;;;;;;;5034300;28;20049;-74
2023/02/20 09:27:59;;;;;;;6.28;2.33;;;;;;;;;;5018014;28;20053;-74
2023/02/20 09:30:26;;;;;;;6.57;2.00;;;;;;;;;;5034430;28;20049;-73
2023/02/20 09:32:53;;;;;;;4.88;1.80;;;;;;;;;;5017797;28;20050;-74
2023/02/20 09:35:24;;;;;;;4.85;1.90;;;;;;;;;;5017945;28;20458;-74
2023/02/20 09:37:51;;;;;;;5.25;1.58;;;;;;;;;;5034237;28;20103;-74
2023/02/20 09:40:29;;;;;;;4.72;2.10;;;;;;;;;;5017574;28;20054;-74
2023/02/20 09:42:55;;;;;;;6.32;2.08;;;;;;;;;;5017540;28;20055;-73
2023/02/20 09:45:28;;;;;;;4.97;1.92;;;;;;;;;;5033911;28;20108;-74
2023/02/20 09:47:58;;;;;;;7.82;1.98;;;;;;;;;;5017457;28;20088;-74
2023/02/20 09:50:43;;;;;;;4.70;1.60;;;;;;;;;;5035045;28;20049;-74
2023/02/20 09:53:21;;;;;;;5.18;1.80;;;;;;;;;;5017327;28;20109;-74
2023/02/20 09:55:48;;;;;;;4.97;1.88;;;;;;;;;;5035123;28;20053;-74
2023/02/20 09:58:41;;;;;;;4.82;1.70;;;;;;;;;;5033634;28;20050;-76
2023/02/20 10:01:09;;;;;;;3.17;1.40;;;;;;;;;;5033797;28;20560;-73
2023/02/20 10:03:50;;;;;;;2.65;1.38;;;;;;;;;;5017304;28;20053;-74
2023/02/20 10:06:18;;;;;;;5.00;1.52;;;;;;;;;;5034160;28;20060;-71
2023/02/20 10:08:48;;;;;;;5.25;1.60;;;;;;;;;;5021995;28;20537;-72
2023/02/20 10:11:47;;;;;;;3.15;1.42;;;;;;;;;;5030670;28;20170;-72
2023/02/20 10:14:36;;;;;;;6.55;1.90;;;;;;;;;;5021616;28;20049;-70
2023/02/20 10:17:12;;;;;;;7.47;2.10;;;;;;;;;;5027430;28;20048;-72
2023/02/20 10:19:50;;;;;;;4.97;1.83;;;;;;;;;;5002908;28;20476;-71
2023/02/20 10:22:30;;;;;;;4.80;1.50;;;;;;;;;;5022979;28;20073;-70
2023/02/20 10:25:17;;;;;;;7.13;2.47;;;;;;;;;;5024854;28;20387;-72
2023/02/20 10:28:08;;;;;;;4.85;2.10;;;;;;;;;;5023857;28;20420;-72
2023/02/20 10:30:40;;;;;;;4.55;1.95;;;;;;;;;;5022519;28;20061;-71
2023/02/20 10:33:19;;;;;;;7.00;2.10;;;;;;;;;;5005888;28;20552;-72
2023/02/20 10:36:19;;;;;;;4.85;1.98;;;;;;;;;;5024237;28;20124;-72
2023/02/20 10:38:50;;;;;;;4.80;2.08;;;;;;;;;;5010518;28;20473;-72
2023/02/20 10:41:33;;;;;;;4.75;1.55;;;;;;;;;;5019685;28;20046;-71
2023/02/20 10:44:18;;;;;;;6.63;2.17;;;;;;;;;;5005554;28;20060;-72
2023/02/20 10:46:55;;;;;;;5.35;2.22;;;;;;;;;;5019834;28;20137;-70
2023/02/20 10:49:28;;;;;;;3.10;1.95;;;;;;;;;;5005460;28;20071;-72
2023/02/20 10:51:57;;;;;;;2.95;1.63;;;;;;;;;;5024408;28;20125;-72
2023/02/20 10:54:29;;;;;;;3.13;1.33;;;;;;;;;;5013975;28;20081;-72
2023/02/20 10:57:26;;;;;;;3.40;1.75;;;;;;;;;;5019558;28;20054;-71
2023/02/20 11:00:04;;;;;;;6.18;2.08;;;;;;;;;;5016107;28;20057;-72
2023/02/20 11:02:36;;;;;;;5.43;2.00;;;;;;;;;;4988832;28;20145;-71
2023/02/20 11:05:09;;;;;;;5.00;1.50;;;;;;;;;;5018680;28;20137;-72
2023/02/20 11:07:35;;;;;;;8.40;1.60;;;;;;;;;;5025935;28;20056;-71
2023/02/20 11:10:03;;;;;;;5.00;1.60;;;;;;;;;;5005161;28;20495;-72
2023/02/20 11:12:34;;;;;;;2.15;1.67;;;;;;;;;;5004235;28;20081;-72
2023/02/20 11:15:06;;;;;;;4.00;1.60;;;;;;;;;;5021940;28;20081;-72
2023/02/20 11:17:33;;;;;;;4.60;1.70;;;;;;;;;;5014889;28;20054;-73
2023/02/20 11:20:00;;;;;;;3.33;1.35;;;;;;;;;;5009312;28;20054;-72
2023/02/20 11:22:48;;;;;;;2.92;1.52;;;;;;;;;;4990538;28;20081;-72
2023/02/20 11:25:20;;;;;;;3.15;1.50;;;;;;;;;;5001552;28;20077;-72
2023/02/20 11:27:49;;;;;;;5.20;1.80;;;;;;;;;;5026128;28;20065;-71
2023/02/20 11:30:32;;;;;;;4.05;1.52;;;;;;;;;;5005128;28;20050;-72
2023/02/20 11:33:12;;;;;;;5.18;2.25;;;;;;;;;;5011341;28;20061;-73
2023/02/20 11:35:40;;;;;;;6.13;1.60;;;;;;;;;;5021635;28;20497;-72
2023/02/20 11:38:13;;;;;;;4.25;1.80;;;;;;;;;;5002375;28;20049;-72
2023/02/20 11:40:40;;;;;;;;;;;;;;;;;;5025048;28;20317;-73
2023/02/20 11:43:13;;;;;;;4.82;1.60;;;;;;;;;;5019460;28;20389;-72
2023/02/20 11:45:40;;;;;;;3.17;1.35;;;;;;;;;;5021247;28;20390;-71
2023/02/20 11:48:11;;;;;;;5.65;1.80;;;;;;;;;;5000330;28;20133;-70
2023/02/20 11:50:51;;;;;;;2.90;1.30;;;;;;;;;;5020747;28;21566;-71
2023/02/20 11:53:31;;;;;;;2.05;1.13;;;;;;;;;;5017941;28;20050;-71
2023/02/20 11:56:16;;;;;;;5.88;1.50;;;;;;;;;;5002037;28;20576;-70
2023/02/20 11:58:46;;;;;;;5.18;1.55;;;;;;;;;;4988523;28;20062;-71
2023/02/20 12:01:34;;;;;;;4.72;1.52;;;;;;;;;;5016915;28;20053;-70
2023/02/20 12:04:01;;;;;;;3.45;1.10;;;;;;;;;;5001502;28;20579;-71
2023/02/20 12:06:38;;;;;;;3.88;1.33;;;;;;;;;;4999806;28;20427;-71
2023/02/20 12:09:10;;;;;;;1.90;1.35;;;;;;;;;;5017858;28;20529;-70
2023/02/20 12:11:37;;;;;;;3.90;1.10;;;;;;;;;;5021540;28;20062;-71
2023/02/20 12:14:08;;;;;;;4.13;1.23;;;;;;;;;;5018736;28;20057;-70
2023/02/20 12:16:47;;;;;;;2.58;1.05;;;;;;;;;;5021116;28;20072;-71
2023/02/20 12:19:34;;;;;;;4.05;1.40;;;;;;;;;;5024332;28;20060;-71
2023/02/20 12:22:03;;;;;;;3.55;1.23;;;;;;;;;;5021431;28;20084;-71
2023/02/20 12:24:59;;;;;;;4.43;1.65;;;;;;;;;;5023678;28;20099;-71
2023/02/20 12:27:44;;;;;;;2.50;1.35;;;;;;;;;;4995916;28;20127;-71
2023/02/20 12:30:21;;;;;;;8.38;1.35;;;;;;;;;;5019978;28;20540;-71
2023/02/20 12:33:07;;;;;;;4.75;1.05;;;;;;;;;;5005467;28;20502;-70
2023/02/20 12:35:39;;;;;;;3.83;1.33;;;;;;;;;;5022542;28;20472;-71
2023/02/20 12:38:15;;;;;;;4.18;1.42;;;;;;;;;;4989458;28;20064;-71
2023/02/20 12:40:57;;;;;;;4.15;1.25;;;;;;;;;;4999511;28;20576;-71
2023/02/20 12:43:49;;;;;;;3.67;1.50;;;;;;;;;;5014550;28;20073;-71
2023/02/20 12:46:23;;;;;;;5.00;1.95;;;;;;;;;;5018882;28;20129;-71
2023/02/20 12:49:21;;;;;;;4.88;1.77;;;;;;;;;;5003174;28;20125;-71
2023/02/20 12:51:55;;;;;;;3.97;1.00;;;;;;;;;;4952834;28;20060;-71
2023/02/20 12:54:47;;;;;;;4.65;1.52;;;;;;;;;;5014769;28;20639;-71
2023/02/20 12:57:23;;;;;;;4.10;0.90;;;;;;;;;;5017564;28;20077;-71
2023/02/20 13:00:22;;;;;;;2.78;1.17;;;;;;;;;;5005467;28;20085;-71
2023/02/20 13:02:50;;;;;;;4.18;1.20;;;;;;;;;;5018817;28;20477;-70
2023/02/20 13:05:19;;;;;;;5.22;1.13;;;;;;;;;;5019832;28;20100;-71
2023/02/20 13:07:49;;;;;;;0.88;0.70;;;;;;;;;;5014593;28;20111;-72
2023/02/20 13:10:26;;;;;;;1.70;0.70;;;;;;;;;;5022004;28;20045;-73
2023/02/20 13:12:53;;;;;;;2.50;0.80;;;;;;;;;;5017093;28;20132;-73
2023/02/20 13:15:29;;;;;;;2.50;0.88;;;;;;;;;;4999566;28;20124;-73
2023/02/20 13:18:06;;;;;;;3.55;0.98;;;;;;;;;;5018848;28;20057;-72
2023/02/20 13:20:38;;;;;;;1.70;0.68;;;;;;;;;;5009175;28;20498;-72
2023/02/20 13:23:16;;;;;;;2.63;1.10;;;;;;;;;;5000601;28;20134;-71
2023/02/20 13:25:49;;;;;;;4.22;1.00;;;;;;;;;;5017226;28;20095;-73
2023/02/20 13:28:19;;;;;;;4.07;1.02;;;;;;;;;;5000312;28;20467;-72
2023/02/20 13:31:40;;;;;;;2.70;0.93;;;;;;;;;;5017586;28;20084;-73
2023/02/20 13:34:07;;;;;;;1.92;0.70;;;;;;;;;;5004618;28;20089;-73
2023/02/20 13:36:34;;;;;;;5.47;0.70;;;;;;;;;;5017703;28;20042;-72
2023/02/20 13:39:20;;;;;;;2.50;0.80;;;;;;;;;;5018097;28;20053;-73
2023/02/20 13:41:53;;;;;;;3.80;1.10;;;;;;;;;;5015135;28;20046;-74
2023/02/20 13:44:33;;;;;;;2.40;0.90;;;;;;;;;;5018521;28;20060;-73
2023/02/20 13:47:06;;;;;;;2.83;1.17;;;;;;;;;;5018204;28;20046;-75
2023/02/20 13:49:48;;;;;;;4.00;0.90;;;;;;;;;;5016256;28;20049;-72
2023/02/20 13:52:40;;;;;;;2.25;0.60;;;;;;;;;;5017753;28;20501;-72
2023/02/20 13:55:10;;;;;;;2.10;0.82;;;;;;;;;;5008360;28;20136;-71
2023/02/20 13:57:53;;;;;;;2.72;0.85;;;;;;;;;;5016949;28;20288;-73
2023/02/20 14:00:53;;;;;;;6.63;3.40;;;;;;;;;;5016599;28;20116;-72
2023/02/20 14:03:24;;;;;;;6.43;1.70;;;;;;;;;;4992219;28;20046;-71
2023/02/20 14:06:07;;;;;;;4.20;1.67;;;;;;;;;;5004737;28;20050;-74
2023/02/20 14:08:37;;;;;;;2.33;1.17;;;;;;;;;;5001675;28;20567;-73
2023/02/20 14:11:08;;;;;;;1.85;0.77;;;;;;;;;;5008204;28;20144;-74
2023/02/20 14:13:35;;;;;;;1.50;0.70;;;;;;;;;;5023445;28;20133;-75
2023/02/20 14:16:36;;;;;;;7.45;1.20;;;;;;;;;;5006121;28;20064;-74
2023/02/20 14:19:25;;;;;;;4.30;0.82;;;;;;;;;;5027589;28;20467;-74
2023/02/20 14:21:52;;;;;;;3.75;0.73;;;;;;;;;;5005019;28;20101;-73
2023/02/20 14:24:27;;;;;;;4.35;0.80;;;;;;;;;;4987707;28;20081;-74
2023/02/20 14:26:55;;;;;;;1.92;0.60;;;;;;;;;;4992113;28;20053;-76
2023/02/20 14:29:32;;;;;;;2.63;0.90;;;;;;;;;;5011616;28;20496;-73
2023/02/20 14:32:00;;;;;;;1.08;0.60;;;;;;;;;;5002074;28;20089;-74
2023/02/20 14:34:41;;;;;;;2.05;0.70;;;;;;;;;;5003010;28;20056;-73
2023/02/20 14:37:13;;;;;;;2.97;1.00;;;;;;;;;;5029096;28;20049;-74
2023/02/20 14:39:59;;;;;;;3.10;0.95;;;;;;;;;;5021290;28;20136;-72
2023/02/20 14:42:26;;;;;;;1.95;0.70;;;;;;;;;;5021035;28;20413;-72
2023/02/20 14:45:04;;;;;;;2.70;1.00;;;;;;;;;;5011196;28;20050;-73
2023/02/20 14:47:31;;;;;;;1.83;0.70;;;;;;;;;;5017292;28;20050;-73
2023/02/20 14:50:15;;;;;;;3.13;0.70;;;;;;;;;;5002990;28;20058;-73
2023/02/20 14:52:42;;;;;;;6.38;0.95;;;;;;;;;;5012843;28;20840;-71
2023/02/20 14:55:15;;;;;;;1.25;0.65;;;;;;;;;;5033221;28;20081;-73
2023/02/20 14:57:42;;;;;;;2.03;0.63;;;;;;;;;;5001891;28;20445;-72
2023/02/20 15:00:15;;;;;;;2.38;0.75;;;;;;;;;;4989659;28;20133;-72
2023/02/20 15:02:44;;;;;;;1.58;0.70;;;;;;;;;;5011701;28;20070;-72
2023/02/20 15:05:15;;;;;;;1.13;0.80;;;;;;;;;;5011369;28;20065;-73
2023/02/20 15:07:42;;;;;;;1.63;0.63;;;;;;;;;;4982307;28;20096;-72
2023/02/20 15:10:36;;;;;;;3.33;0.80;;;;;;;;;;5021164;28;20050;-73
2023/02/20 15:13:11;;;;;;;6.63;0.90;;;;;;;;;;5042838;28;20107;-73
2023/02/20 15:15:40;;;;;;;3.22;0.85;;;;;;;;;;4999969;28;20136;-73
2023/02/20 15:18:16;;;;;;;3.28;0.80;;;;;;;;;;5030846;28;20132;-72
2023/02/20 15:20:44;;;;;;;1.20;0.70;;;;;;;;;;5015418;28;20111;-73
2023/02/20 15:23:30;;;;;;;1.98;0.80;;;;;;;;;;5031155;28;20416;-73
2023/02/20 15:25:57;;;;;;;2.05;0.98;;;;;;;;;;5014499;28;20104;-72
2023/02/20 15:28:30;;;;;;;1.70;0.70;;;;;;;;;;4997576;28;20141;-73